createdAt,value
2023-01-18T00:05:50.985Z,97543.13
2023-01-18T00:20:42.793Z,97547.23
2023-01-18T00:35:32.963Z,97535.52
2023-01-18T00:50:23.308Z,97540.83
2023-01-18T01:05:38.972Z,97551.67
2023-01-18T01:20:52.660Z,97561.90
2023-01-18T01:35:48.375Z,97576.52
2023-01-18T01:50:40.065Z,97590.64
2023-01-18T02:05:30.909Z,97604.18
2023-01-18T02:20:44.641Z,97619.34
2023-01-18T02:35:46.152Z,97642.24
2023-01-18T02:50:40.881Z,97661.30
2023-01-18T03:05:31.784Z,97674.42
2023-01-18T03:20:25.318Z,97676.34
2023-01-18T03:35:14.109Z,97701.77
2023-01-18T03:50:03.745Z,97721.89
2023-01-18T04:04:55.219Z,97741.88
2023-01-18T04:19:43.915Z,97768.85
2023-01-18T04:34:33.982Z,97785.17
2023-01-18T04:49:24.093Z,97818.78
2023-01-18T05:04:13.975Z,97845.14
2023-01-18T05:19:04.107Z,97867.27
2023-01-18T05:33:53.934Z,97913.44
2023-01-18T05:48:43.156Z,97933.55
2023-01-18T06:03:32.791Z,97954.36
2023-01-18T06:18:25.399Z,98000.06
2023-01-18T06:33:17.808Z,98026.67
2023-01-18T06:48:07.415Z,98058.37
2023-01-18T07:02:58.503Z,98081.47
2023-01-18T07:17:48.292Z,98104.77
2023-01-18T07:32:39.143Z,98126.25
2023-01-18T07:47:30.539Z,98145.80
2023-01-18T08:02:21.087Z,98169.17
2023-01-18T08:17:12.167Z,98198.11
2023-01-18T08:32:02.558Z,98228.38
2023-01-18T08:46:53.607Z,98251.08
2023-01-18T09:01:44.995Z,98276.39
2023-01-18T09:16:35.925Z,98313.28
2023-01-18T09:31:26.047Z,98338.77
2023-01-18T09:46:18.904Z,98360.46
2023-01-18T10:01:17.347Z,98380.30
2023-01-18T10:16:12.693Z,98406.90
2023-01-18T10:31:22.009Z,98413.97
2023-01-18T10:46:17.840Z,98419.94
2023-01-18T11:01:08.933Z,98425.23
2023-01-18T11:16:14.591Z,98443.61
2023-01-18T11:31:15.994Z,98460.30
2023-01-18T11:46:21.789Z,98474.49
2023-01-18T12:01:17.177Z,98494.59
2023-01-18T12:16:28.334Z,98501.81
2023-01-18T12:31:33.781Z,98518.80
2023-01-18T12:46:28.761Z,98534.17
2023-01-18T13:01:19.760Z,98547.22
2023-01-18T13:16:19.047Z,98561.23
2023-01-18T13:31:13.358Z,98570.43
2023-01-18T13:46:08.721Z,98603.75
2023-01-18T14:01:05.849Z,98626.02
2023-01-18T14:15:59.071Z,98649.12
2023-01-18T14:30:50.101Z,98667.83
2023-01-18T14:45:39.649Z,98691.52
2023-01-18T15:00:29.140Z,98711.64
2023-01-18T15:15:17.923Z,98745.62
2023-01-18T15:30:08.788Z,98762.84
2023-01-18T15:44:58.738Z,98791.77
2023-01-18T15:59:48.690Z,98811.84
2023-01-18T16:14:38.324Z,98834.70
2023-01-18T16:29:28.301Z,98854.16
2023-01-18T16:44:18.210Z,98881.48
2023-01-18T16:59:20.435Z,98905.04
2023-01-18T17:14:14.654Z,98932.08
2023-01-18T17:29:03.661Z,98960.91
2023-01-18T17:43:53.388Z,98987.09
2023-01-18T17:58:42.649Z,98999.84
2023-01-18T18:13:31.648Z,99030.22
2023-01-18T18:28:21.698Z,99052.33
2023-01-18T18:43:11.683Z,99079.58
2023-01-18T18:58:01.734Z,99091.45
2023-01-18T19:12:50.633Z,99120.86
2023-01-18T19:27:43.935Z,99139.73
2023-01-18T19:42:34.698Z,99161.59
2023-01-18T19:57:23.741Z,99173.61
2023-01-18T20:12:13.534Z,99199.00
2023-01-18T20:27:15.042Z,99215.14
2023-01-18T20:41:53.275Z,99229.07
2023-01-18T20:56:44.376Z,99250.48
2023-01-18T21:11:33.993Z,99266.28
2023-01-18T21:41:43.703Z,99277.71
2023-01-18T21:56:38.613Z,99300.50
2023-01-18T22:11:31.916Z,99312.88
2023-01-18T22:26:23.927Z,99339.48
2023-01-18T22:41:12.916Z,99355.28
2023-01-18T22:56:02.063Z,99364.45
2023-01-18T23:10:57.132Z,99363.19
2023-01-18T23:25:56.772Z,99379.55
2023-01-18T23:41:09.284Z,99374.26
2023-01-18T23:56:04.523Z,99381.25
